sensor_id;sensor_type;location;lat;lon;timestamp;P1;durP1;ratioP1;P2;durP2;ratioP2
11305;SDS011;5708;50.660;6.778;2023-05-10T00:00:08;5.95;;;1.20;;
11305;SDS011;5708;50.660;6.778;2023-05-10T00:02:34;4.00;;;1.10;;
11305;SDS011;5708;50.660;6.778;2023-05-10T00:04:59;2.55;;;1.30;;
11305;SDS011;5708;50.660;6.778;2023-05-10T00:07:25;2.83;;;0.90;;
11305;SDS011;5708;50.660;6.778;2023-05-10T00:09:50;1.80;;;0.88;;
11305;SDS011;5708;50.660;6.778;2023-05-10T00:12:16;2.47;;;0.70;;
11305;SDS011;5708;50.660;6.778;2023-05-10T00:14:41;2.45;;;0.80;;
11305;SDS011;5708;50.660;6.778;2023-05-10T00:17:07;1.33;;;0.82;;
11305;SDS011;5708;50.660;6.778;2023-05-10T00:19:33;0.75;;;0.70;;
11305;SDS011;5708;50.660;6.778;2023-05-10T00:21:58;2.25;;;0.80;;
11305;SDS011;5708;50.660;6.778;2023-05-10T00:24:24;1.27;;;0.80;;
11305;SDS011;5708;50.660;6.778;2023-05-10T00:26:49;2.42;;;0.93;;
11305;SDS011;5708;50.660;6.778;2023-05-10T00:29:14;2.30;;;0.90;;
11305;SDS011;5708;50.660;6.778;2023-05-10T00:31:40;3.92;;;1.17;;
11305;SDS011;5708;50.660;6.778;2023-05-10T00:34:05;2.55;;;0.90;;
11305;SDS011;5708;50.660;6.778;2023-05-10T00:36:30;3.08;;;1.23;;
11305;SDS011;5708;50.660;6.778;2023-05-10T00:38:56;2.63;;;1.00;;
11305;SDS011;5708;50.660;6.778;2023-05-10T00:41:21;2.10;;;0.80;;
11305;SDS011;5708;50.660;6.778;2023-05-10T00:43:47;3.45;;;1.05;;
11305;SDS011;5708;50.660;6.778;2023-05-10T00:46:14;3.78;;;1.05;;
11305;SDS011;5708;50.660;6.778;2023-05-10T00:48:39;3.78;;;1.20;;
11305;SDS011;5708;50.660;6.778;2023-05-10T00:51:04;2.22;;;1.20;;
11305;SDS011;5708;50.660;6.778;2023-05-10T00:53:31;3.55;;;1.10;;
11305;SDS011;5708;50.660;6.778;2023-05-10T00:55:57;4.43;;;1.20;;
11305;SDS011;5708;50.660;6.778;2023-05-10T00:58:22;4.90;;;1.30;;
11305;SDS011;5708;50.660;6.778;2023-05-10T01:00:48;1.60;;;1.20;;
11305;SDS011;5708;50.660;6.778;2023-05-10T01:03:14;4.57;;;1.40;;
11305;SDS011;5708;50.660;6.778;2023-05-10T01:05:39;1.67;;;1.10;;
11305;SDS011;5708;50.660;6.778;2023-05-10T01:08:05;3.08;;;1.42;;
11305;SDS011;5708;50.660;6.778;2023-05-10T01:10:31;2.22;;;1.30;;
11305;SDS011;5708;50.660;6.778;2023-05-10T01:12:56;3.17;;;1.30;;
11305;SDS011;5708;50.660;6.778;2023-05-10T01:15:23;2.20;;;1.42;;
11305;SDS011;5708;50.660;6.778;2023-05-10T01:17:49;2.25;;;1.30;;
11305;SDS011;5708;50.660;6.778;2023-05-10T01:20:14;2.28;;;1.55;;
11305;SDS011;5708;50.660;6.778;2023-05-10T01:28:45;2.05;;;1.30;;
11305;SDS011;5708;50.660;6.778;2023-05-10T01:34:13;2.95;;;1.38;;
11305;SDS011;5708;50.660;6.778;2023-05-10T01:36:51;2.75;;;1.30;;
11305;SDS011;5708;50.660;6.778;2023-05-10T01:39:22;1.63;;;1.20;;
11305;SDS011;5708;50.660;6.778;2023-05-10T01:42:03;2.20;;;1.40;;
11305;SDS011;5708;50.660;6.778;2023-05-10T01:44:41;3.00;;;1.40;;
11305;SDS011;5708;50.660;6.778;2023-05-10T01:47:12;2.70;;;1.50;;
11305;SDS011;5708;50.660;6.778;2023-05-10T01:50:01;3.95;;;1.50;;
11305;SDS011;5708;50.660;6.778;2023-05-10T01:52:26;2.88;;;1.40;;
11305;SDS011;5708;50.660;6.778;2023-05-10T01:55:02;1.60;;;1.15;;
11305;SDS011;5708;50.660;6.778;2023-05-10T01:57:32;1.63;;;1.20;;
11305;SDS011;5708;50.660;6.778;2023-05-10T01:59:58;2.47;;;1.33;;
11305;SDS011;5708;50.660;6.778;2023-05-10T02:02:26;2.47;;;1.45;;
11305;SDS011;5708;50.660;6.778;2023-05-10T02:04:53;1.75;;;1.27;;
11305;SDS011;5708;50.660;6.778;2023-05-10T02:07:18;1.80;;;1.42;;
11305;SDS011;5708;50.660;6.778;2023-05-10T02:09:44;2.38;;;1.48;;
11305;SDS011;5708;50.660;6.778;2023-05-10T02:12:14;3.97;;;1.55;;
11305;SDS011;5708;50.660;6.778;2023-05-10T02:14:40;3.22;;;2.10;;
11305;SDS011;5708;50.660;6.778;2023-05-10T02:17:06;5.63;;;2.60;;
11305;SDS011;5708;50.660;6.778;2023-05-10T02:19:32;8.77;;;4.05;;
11305;SDS011;5708;50.660;6.778;2023-05-10T02:21:59;7.60;;;3.60;;
11305;SDS011;5708;50.660;6.778;2023-05-10T02:24:25;6.60;;;4.15;;
11305;SDS011;5708;50.660;6.778;2023-05-10T02:26:52;7.80;;;4.03;;
11305;SDS011;5708;50.660;6.778;2023-05-10T02:29:19;9.60;;;3.80;;
11305;SDS011;5708;50.660;6.778;2023-05-10T02:31:44;9.43;;;4.70;;
11305;SDS011;5708;50.660;6.778;2023-05-10T02:34:10;10.15;;;4.68;;
11305;SDS011;5708;50.660;6.778;2023-05-10T02:36:37;9.45;;;5.05;;
11305;SDS011;5708;50.660;6.778;2023-05-10T02:39:03;10.27;;;5.88;;
11305;SDS011;5708;50.660;6.778;2023-05-10T02:41:30;9.38;;;5.47;;
11305;SDS011;5708;50.660;6.778;2023-05-10T02:43:57;10.02;;;5.78;;
11305;SDS011;5708;50.660;6.778;2023-05-10T02:46:24;10.45;;;5.82;;
11305;SDS011;5708;50.660;6.778;2023-05-10T02:48:50;9.57;;;5.30;;
11305;SDS011;5708;50.660;6.778;2023-05-10T02:51:16;11.68;;;6.22;;
11305;SDS011;5708;50.660;6.778;2023-05-10T02:53:44;9.75;;;5.90;;
11305;SDS011;5708;50.660;6.778;2023-05-10T02:56:12;13.13;;;5.85;;
11305;SDS011;5708;50.660;6.778;2023-05-10T02:58:39;10.15;;;5.78;;
11305;SDS011;5708;50.660;6.778;2023-05-10T03:01:05;11.27;;;5.70;;
11305;SDS011;5708;50.660;6.778;2023-05-10T03:03:32;10.50;;;6.55;;
11305;SDS011;5708;50.660;6.778;2023-05-10T03:05:57;11.73;;;6.40;;
11305;SDS011;5708;50.660;6.778;2023-05-10T03:08:23;9.50;;;6.38;;
11305;SDS011;5708;50.660;6.778;2023-05-10T03:11:32;10.10;;;6.13;;
11305;SDS011;5708;50.660;6.778;2023-05-10T03:16:35;12.88;;;6.18;;
11305;SDS011;5708;50.660;6.778;2023-05-10T03:19:08;10.32;;;6.57;;
11305;SDS011;5708;50.660;6.778;2023-05-10T03:21:36;9.00;;;5.95;;
11305;SDS011;5708;50.660;6.778;2023-05-10T03:24:05;9.95;;;6.30;;
11305;SDS011;5708;50.660;6.778;2023-05-10T03:26:32;11.07;;;5.45;;
11305;SDS011;5708;50.660;6.778;2023-05-10T03:28:58;9.32;;;5.70;;
11305;SDS011;5708;50.660;6.778;2023-05-10T03:31:24;9.73;;;5.20;;
11305;SDS011;5708;50.660;6.778;2023-05-10T03:33:49;9.13;;;5.68;;
11305;SDS011;5708;50.660;6.778;2023-05-10T03:36:15;15.80;;;5.60;;
11305;SDS011;5708;50.660;6.778;2023-05-10T03:38:41;10.48;;;6.03;;
11305;SDS011;5708;50.660;6.778;2023-05-10T03:41:06;10.10;;;5.45;;
11305;SDS011;5708;50.660;6.778;2023-05-10T03:43:32;7.72;;;5.28;;
11305;SDS011;5708;50.660;6.778;2023-05-10T03:45:57;8.88;;;5.10;;
11305;SDS011;5708;50.660;6.778;2023-05-10T03:48:22;8.52;;;5.28;;
11305;SDS011;5708;50.660;6.778;2023-05-10T03:50:47;9.30;;;5.18;;
11305;SDS011;5708;50.660;6.778;2023-05-10T03:53:14;10.48;;;4.82;;
11305;SDS011;5708;50.660;6.778;2023-05-10T03:55:39;9.60;;;5.40;;
11305;SDS011;5708;50.660;6.778;2023-05-10T03:58:05;9.07;;;4.93;;
11305;SDS011;5708;50.660;6.778;2023-05-10T04:00:30;9.20;;;4.88;;
11305;SDS011;5708;50.660;6.778;2023-05-10T04:02:56;11.65;;;5.07;;
11305;SDS011;5708;50.660;6.778;2023-05-10T04:05:21;9.10;;;5.00;;
11305;SDS011;5708;50.660;6.778;2023-05-10T04:07:47;7.70;;;4.60;;
11305;SDS011;5708;50.660;6.778;2023-05-10T04:10:14;8.13;;;4.32;;
11305;SDS011;5708;50.660;6.778;2023-05-10T04:12:41;8.10;;;3.97;;
11305;SDS011;5708;50.660;6.778;2023-05-10T04:15:06;7.63;;;4.15;;
11305;SDS011;5708;50.660;6.778;2023-05-10T04:17:32;7.53;;;3.75;;
11305;SDS011;5708;50.660;6.778;2023-05-10T04:19:57;7.07;;;3.88;;
11305;SDS011;5708;50.660;6.778;2023-05-10T04:22:23;7.95;;;4.18;;
11305;SDS011;5708;50.660;6.778;2023-05-10T04:24:48;8.18;;;4.32;;
11305;SDS011;5708;50.660;6.778;2023-05-10T04:27:13;8.65;;;4.97;;
11305;SDS011;5708;50.660;6.778;2023-05-10T04:29:39;8.27;;;5.45;;
11305;SDS011;5708;50.660;6.778;2023-05-10T04:32:04;9.52;;;5.57;;
11305;SDS011;5708;50.660;6.778;2023-05-10T04:34:29;10.07;;;6.13;;
11305;SDS011;5708;50.660;6.778;2023-05-10T04:36:55;10.98;;;6.63;;
11305;SDS011;5708;50.660;6.778;2023-05-10T04:39:20;11.73;;;7.30;;
11305;SDS011;5708;50.660;6.778;2023-05-10T04:41:45;11.40;;;7.03;;
11305;SDS011;5708;50.660;6.778;2023-05-10T04:44:11;13.27;;;7.32;;
11305;SDS011;5708;50.660;6.778;2023-05-10T04:46:36;12.02;;;7.72;;
11305;SDS011;5708;50.660;6.778;2023-05-10T04:49:01;13.32;;;8.70;;
11305;SDS011;5708;50.660;6.778;2023-05-10T04:51:27;14.18;;;8.63;;
11305;SDS011;5708;50.660;6.778;2023-05-10T04:53:52;15.02;;;8.98;;
11305;SDS011;5708;50.660;6.778;2023-05-10T04:56:17;13.82;;;9.00;;
11305;SDS011;5708;50.660;6.778;2023-05-10T04:58:42;12.68;;;8.10;;
11305;SDS011;5708;50.660;6.778;2023-05-10T05:01:08;16.23;;;8.68;;
11305;SDS011;5708;50.660;6.778;2023-05-10T05:03:35;16.60;;;9.02;;
11305;SDS011;5708;50.660;6.778;2023-05-10T05:06:01;13.18;;;8.23;;
11305;SDS011;5708;50.660;6.778;2023-05-10T05:08:26;14.38;;;8.15;;
11305;SDS011;5708;50.660;6.778;2023-05-10T05:10:51;15.13;;;8.45;;
11305;SDS011;5708;50.660;6.778;2023-05-10T05:13:17;13.35;;;8.27;;
11305;SDS011;5708;50.660;6.778;2023-05-10T05:15:43;14.05;;;9.20;;
11305;SDS011;5708;50.660;6.778;2023-05-10T05:18:08;14.05;;;8.20;;
11305;SDS011;5708;50.660;6.778;2023-05-10T05:20:33;11.30;;;7.75;;
11305;SDS011;5708;50.660;6.778;2023-05-10T05:22:59;11.35;;;7.20;;
11305;SDS011;5708;50.660;6.778;2023-05-10T05:25:25;18.00;;;7.82;;
11305;SDS011;5708;50.660;6.778;2023-05-10T05:27:50;14.75;;;7.40;;
11305;SDS011;5708;50.660;6.778;2023-05-10T05:30:15;14.25;;;7.65;;
11305;SDS011;5708;50.660;6.778;2023-05-10T05:32:41;11.20;;;6.95;;
11305;SDS011;5708;50.660;6.778;2023-05-10T05:35:06;11.90;;;6.40;;
11305;SDS011;5708;50.660;6.778;2023-05-10T05:37:32;12.25;;;6.55;;
11305;SDS011;5708;50.660;6.778;2023-05-10T05:39:57;12.10;;;6.65;;
11305;SDS011;5708;50.660;6.778;2023-05-10T05:42:22;15.50;;;6.80;;
11305;SDS011;5708;50.660;6.778;2023-05-10T05:44:48;10.60;;;5.72;;
11305;SDS011;5708;50.660;6.778;2023-05-10T05:47:13;12.30;;;6.13;;
11305;SDS011;5708;50.660;6.778;2023-05-10T05:49:39;11.82;;;5.45;;
11305;SDS011;5708;50.660;6.778;2023-05-10T05:52:04;10.63;;;5.63;;
11305;SDS011;5708;50.660;6.778;2023-05-10T05:54:30;10.75;;;5.43;;
11305;SDS011;5708;50.660;6.778;2023-05-10T05:56:56;9.38;;;5.00;;
11305;SDS011;5708;50.660;6.778;2023-05-10T05:59:22;8.32;;;4.57;;
11305;SDS011;5708;50.660;6.778;2023-05-10T06:01:47;7.65;;;4.82;;
11305;SDS011;5708;50.660;6.778;2023-05-10T06:04:13;13.95;;;4.90;;
11305;SDS011;5708;50.660;6.778;2023-05-10T06:06:38;10.57;;;5.20;;
11305;SDS011;5708;50.660;6.778;2023-05-10T06:09:03;9.60;;;4.93;;
11305;SDS011;5708;50.660;6.778;2023-05-10T06:11:29;10.13;;;5.03;;
11305;SDS011;5708;50.660;6.778;2023-05-10T06:13:56;10.68;;;4.90;;
11305;SDS011;5708;50.660;6.778;2023-05-10T06:16:22;8.70;;;4.35;;
11305;SDS011;5708;50.660;6.778;2023-05-10T06:18:48;8.23;;;3.80;;
11305;SDS011;5708;50.660;6.778;2023-05-10T06:21:13;8.45;;;3.38;;
11305;SDS011;5708;50.660;6.778;2023-05-10T06:23:39;7.10;;;3.65;;
11305;SDS011;5708;50.660;6.778;2023-05-10T06:26:05;7.97;;;3.70;;
11305;SDS011;5708;50.660;6.778;2023-05-10T06:28:30;7.85;;;4.15;;
11305;SDS011;5708;50.660;6.778;2023-05-10T06:30:57;7.35;;;4.25;;
11305;SDS011;5708;50.660;6.778;2023-05-10T06:33:22;9.50;;;4.80;;
11305;SDS011;5708;50.660;6.778;2023-05-10T06:35:47;8.00;;;4.90;;
11305;SDS011;5708;50.660;6.778;2023-05-10T06:38:13;7.18;;;4.70;;
11305;SDS011;5708;50.660;6.778;2023-05-10T06:40:41;10.18;;;5.78;;
11305;SDS011;5708;50.660;6.778;2023-05-10T06:43:07;8.85;;;4.78;;
11305;SDS011;5708;50.660;6.778;2023-05-10T06:45:32;8.02;;;5.07;;
11305;SDS011;5708;50.660;6.778;2023-05-10T06:47:57;9.95;;;4.53;;
11305;SDS011;5708;50.660;6.778;2023-05-10T06:50:23;7.20;;;4.30;;
11305;SDS011;5708;50.660;6.778;2023-05-10T06:52:48;9.57;;;4.35;;
11305;SDS011;5708;50.660;6.778;2023-05-10T06:55:13;5.63;;;3.60;;
11305;SDS011;5708;50.660;6.778;2023-05-10T06:57:39;8.80;;;3.60;;
11305;SDS011;5708;50.660;6.778;2023-05-10T07:00:04;7.38;;;3.80;;
11305;SDS011;5708;50.660;6.778;2023-05-10T07:02:30;6.53;;;3.58;;
11305;SDS011;5708;50.660;6.778;2023-05-10T07:04:55;5.05;;;2.97;;
11305;SDS011;5708;50.660;6.778;2023-05-10T07:07:21;6.97;;;3.00;;
11305;SDS011;5708;50.660;6.778;2023-05-10T07:09:46;5.15;;;2.40;;
11305;SDS011;5708;50.660;6.778;2023-05-10T07:12:11;4.78;;;2.53;;
11305;SDS011;5708;50.660;6.778;2023-05-10T07:14:37;6.00;;;2.70;;
11305;SDS011;5708;50.660;6.778;2023-05-10T07:17:02;5.68;;;2.70;;
11305;SDS011;5708;50.660;6.778;2023-05-10T07:19:27;4.38;;;3.00;;
11305;SDS011;5708;50.660;6.778;2023-05-10T07:21:54;5.25;;;2.90;;
11305;SDS011;5708;50.660;6.778;2023-05-10T07:24:20;7.70;;;2.80;;
11305;SDS011;5708;50.660;6.778;2023-05-10T07:26:45;6.32;;;2.70;;
11305;SDS011;5708;50.660;6.778;2023-05-10T07:29:10;6.68;;;2.53;;
11305;SDS011;5708;50.660;6.778;2023-05-10T07:31:36;5.45;;;2.30;;
11305;SDS011;5708;50.660;6.778;2023-05-10T07:34:01;4.68;;;2.60;;
11305;SDS011;5708;50.660;6.778;2023-05-10T07:36:27;5.70;;;2.67;;
11305;SDS011;5708;50.660;6.778;2023-05-10T07:38:52;3.92;;;2.30;;
11305;SDS011;5708;50.660;6.778;2023-05-10T07:41:18;5.10;;;2.35;;
11305;SDS011;5708;50.660;6.778;2023-05-10T07:43:43;5.07;;;2.25;;
11305;SDS011;5708;50.660;6.778;2023-05-10T07:46:09;3.78;;;2.20;;
11305;SDS011;5708;50.660;6.778;2023-05-10T07:48:36;5.75;;;2.30;;
11305;SDS011;5708;50.660;6.778;2023-05-10T07:51:02;5.10;;;2.28;;
11305;SDS011;5708;50.660;6.778;2023-05-10T07:53:27;4.75;;;2.58;;
11305;SDS011;5708;50.660;6.778;2023-05-10T07:55:54;3.88;;;1.75;;
11305;SDS011;5708;50.660;6.778;2023-05-10T07:58:23;4.35;;;1.73;;
11305;SDS011;5708;50.660;6.778;2023-05-10T08:00:48;3.95;;;1.95;;
11305;SDS011;5708;50.660;6.778;2023-05-10T08:03:14;4.65;;;1.90;;
11305;SDS011;5708;50.660;6.778;2023-05-10T08:05:39;3.40;;;1.63;;
11305;SDS011;5708;50.660;6.778;2023-05-10T08:08:05;1.75;;;0.75;;
11305;SDS011;5708;50.660;6.778;2023-05-10T08:10:31;1.25;;;0.55;;
11305;SDS011;5708;50.660;6.778;2023-05-10T08:12:56;1.42;;;0.43;;
11305;SDS011;5708;50.660;6.778;2023-05-10T08:15:23;1.73;;;0.50;;
11305;SDS011;5708;50.660;6.778;2023-05-10T08:17:48;0.93;;;0.45;;
11305;SDS011;5708;50.660;6.778;2023-05-10T08:20:14;1.15;;;0.50;;
11305;SDS011;5708;50.660;6.778;2023-05-10T08:22:41;1.10;;;0.55;;
11305;SDS011;5708;50.660;6.778;2023-05-10T08:25:07;0.95;;;0.40;;
11305;SDS011;5708;50.660;6.778;2023-05-10T08:27:32;0.70;;;0.40;;
11305;SDS011;5708;50.660;6.778;2023-05-10T08:29:58;2.60;;;0.60;;
11305;SDS011;5708;50.660;6.778;2023-05-10T08:32:23;0.50;;;0.50;;
11305;SDS011;5708;50.660;6.778;2023-05-10T08:34:48;1.92;;;0.52;;
11305;SDS011;5708;50.660;6.778;2023-05-10T08:37:14;1.50;;;0.85;;
11305;SDS011;5708;50.660;6.778;2023-05-10T08:39:39;1.08;;;0.70;;
11305;SDS011;5708;50.660;6.778;2023-05-10T08:42:05;3.47;;;0.80;;
11305;SDS011;5708;50.660;6.778;2023-05-10T08:44:31;1.65;;;0.80;;
11305;SDS011;5708;50.660;6.778;2023-05-10T08:46:57;1.10;;;0.60;;
11305;SDS011;5708;50.660;6.778;2023-05-10T08:49:24;1.98;;;0.65;;
11305;SDS011;5708;50.660;6.778;2023-05-10T08:51:51;0.52;;;0.40;;
11305;SDS011;5708;50.660;6.778;2023-05-10T08:54:20;1.38;;;0.60;;
11305;SDS011;5708;50.660;6.778;2023-05-10T08:56:46;1.20;;;0.68;;
11305;SDS011;5708;50.660;6.778;2023-05-10T08:59:11;1.95;;;0.80;;
11305;SDS011;5708;50.660;6.778;2023-05-10T09:01:38;0.90;;;0.65;;
11305;SDS011;5708;50.660;6.778;2023-05-10T09:04:04;2.47;;;0.60;;
11305;SDS011;5708;50.660;6.778;2023-05-10T09:06:30;0.73;;;0.50;;
11305;SDS011;5708;50.660;6.778;2023-05-10T09:08:55;1.58;;;0.50;;
11305;SDS011;5708;50.660;6.778;2023-05-10T09:11:20;0.82;;;0.50;;
11305;SDS011;5708;50.660;6.778;2023-05-10T09:13:47;0.80;;;0.50;;
11305;SDS011;5708;50.660;6.778;2023-05-10T09:16:13;0.90;;;0.55;;
11305;SDS011;5708;50.660;6.778;2023-05-10T09:18:38;1.40;;;0.50;;
11305;SDS011;5708;50.660;6.778;2023-05-10T09:21:04;0.40;;;0.40;;
11305;SDS011;5708;50.660;6.778;2023-05-10T09:23:29;0.75;;;0.50;;
11305;SDS011;5708;50.660;6.778;2023-05-10T09:26:04;0.93;;;0.50;;
11305;SDS011;5708;50.660;6.778;2023-05-10T09:31:21;2.05;;;0.40;;
11305;SDS011;5708;50.660;6.778;2023-05-10T09:33:47;1.00;;;0.90;;
11305;SDS011;5708;50.660;6.778;2023-05-10T09:36:13;0.82;;;0.60;;
11305;SDS011;5708;50.660;6.778;2023-05-10T09:38:48;1.00;;;0.47;;
11305;SDS011;5708;50.660;6.778;2023-05-10T09:41:16;0.85;;;0.40;;
11305;SDS011;5708;50.660;6.778;2023-05-10T09:43:42;1.40;;;0.40;;
11305;SDS011;5708;50.660;6.778;2023-05-10T09:46:11;1.58;;;0.60;;
11305;SDS011;5708;50.660;6.778;2023-05-10T09:48:43;1.45;;;0.45;;
11305;SDS011;5708;50.660;6.778;2023-05-10T09:51:10;0.50;;;0.40;;
11305;SDS011;5708;50.660;6.778;2023-05-10T09:53:35;0.50;;;0.40;;
11305;SDS011;5708;50.660;6.778;2023-05-10T09:56:01;1.00;;;0.40;;
11305;SDS011;5708;50.660;6.778;2023-05-10T09:58:27;3.22;;;0.98;;
11305;SDS011;5708;50.660;6.778;2023-05-10T10:00:52;1.30;;;0.60;;
11305;SDS011;5708;50.660;6.778;2023-05-10T10:03:19;0.98;;;0.60;;
11305;SDS011;5708;50.660;6.778;2023-05-10T10:05:45;3.63;;;0.60;;
11305;SDS011;5708;50.660;6.778;2023-05-10T10:08:12;1.45;;;0.70;;
11305;SDS011;5708;50.660;6.778;2023-05-10T10:10:38;1.73;;;0.75;;
11305;SDS011;5708;50.660;6.778;2023-05-10T10:13:05;1.35;;;0.50;;
11305;SDS011;5708;50.660;6.778;2023-05-10T10:15:30;0.50;;;0.50;;
11305;SDS011;5708;50.660;6.778;2023-05-10T10:17:57;0.60;;;0.60;;
11305;SDS011;5708;50.660;6.778;2023-05-10T10:20:24;2.28;;;0.50;;
11305;SDS011;5708;50.660;6.778;2023-05-10T10:22:50;0.85;;;0.60;;
11305;SDS011;5708;50.660;6.778;2023-05-10T10:25:15;1.63;;;0.47;;
11305;SDS011;5708;50.660;6.778;2023-05-10T10:27:48;0.85;;;0.40;;
11305;SDS011;5708;50.660;6.778;2023-05-10T10:33:10;0.95;;;0.40;;
11305;SDS011;5708;50.660;6.778;2023-05-10T10:36:00;0.28;;;0.28;;
11305;SDS011;5708;50.660;6.778;2023-05-10T10:38:35;0.30;;;0.20;;
11305;SDS011;5708;50.660;6.778;2023-05-10T10:41:02;1.42;;;0.55;;
11305;SDS011;5708;50.660;6.778;2023-05-10T10:43:28;0.20;;;0.20;;
11305;SDS011;5708;50.660;6.778;2023-05-10T10:46:10;0.65;;;0.20;;
11305;SDS011;5708;50.660;6.778;2023-05-10T10:48:36;0.20;;;0.20;;
11305;SDS011;5708;50.660;6.778;2023-05-10T10:51:01;2.33;;;0.30;;
11305;SDS011;5708;50.660;6.778;2023-05-10T10:53:27;2.38;;;0.40;;
11305;SDS011;5708;50.660;6.778;2023-05-10T10:56:09;0.30;;;0.30;;
11305;SDS011;5708;50.660;6.778;2023-05-10T10:58:40;0.30;;;0.30;;
11305;SDS011;5708;50.660;6.778;2023-05-10T11:01:13;1.13;;;0.50;;
11305;SDS011;5708;50.660;6.778;2023-05-10T11:06:29;2.05;;;0.32;;
11305;SDS011;5708;50.660;6.778;2023-05-10T11:08:58;0.50;;;0.30;;
11305;SDS011;5708;50.660;6.778;2023-05-10T11:11:24;0.30;;;0.20;;
11305;SDS011;5708;50.660;6.778;2023-05-10T11:13:50;1.33;;;0.32;;
11305;SDS011;5708;50.660;6.778;2023-05-10T11:16:23;0.30;;;0.30;;
11305;SDS011;5708;50.660;6.778;2023-05-10T11:21:24;0.50;;;0.30;;
11305;SDS011;5708;50.660;6.778;2023-05-10T11:23:51;0.85;;;0.30;;
11305;SDS011;5708;50.660;6.778;2023-05-10T11:26:21;0.60;;;0.40;;
11305;SDS011;5708;50.660;6.778;2023-05-10T11:28:48;7.05;;;1.20;;
11305;SDS011;5708;50.660;6.778;2023-05-10T11:31:14;3.80;;;0.45;;
11305;SDS011;5708;50.660;6.778;2023-05-10T11:33:44;0.40;;;0.30;;
11305;SDS011;5708;50.660;6.778;2023-05-10T11:36:17;0.95;;;0.50;;
11305;SDS011;5708;50.660;6.778;2023-05-10T11:38:43;0.90;;;0.40;;
11305;SDS011;5708;50.660;6.778;2023-05-10T11:41:09;2.30;;;0.50;;
11305;SDS011;5708;50.660;6.778;2023-05-10T11:43:36;0.45;;;0.45;;
11305;SDS011;5708;50.660;6.778;2023-05-10T11:46:03;0.57;;;0.35;;
11305;SDS011;5708;50.660;6.778;2023-05-10T11:48:32;2.20;;;0.40;;
11305;SDS011;5708;50.660;6.778;2023-05-10T11:50:57;0.30;;;0.30;;
11305;SDS011;5708;50.660;6.778;2023-05-10T11:53:25;0.82;;;0.40;;
11305;SDS011;5708;50.660;6.778;2023-05-10T11:55:51;1.77;;;0.50;;
11305;SDS011;5708;50.660;6.778;2023-05-10T11:58:17;1.73;;;0.73;;
11305;SDS011;5708;50.660;6.778;2023-05-10T12:00:43;0.70;;;0.50;;
11305;SDS011;5708;50.660;6.778;2023-05-10T12:03:08;2.45;;;0.63;;
11305;SDS011;5708;50.660;6.778;2023-05-10T12:05:35;3.42;;;0.77;;
11305;SDS011;5708;50.660;6.778;2023-05-10T12:08:10;1.35;;;0.70;;
11305;SDS011;5708;50.660;6.778;2023-05-10T12:10:39;0.73;;;0.60;;
11305;SDS011;5708;50.660;6.778;2023-05-10T12:13:04;4.30;;;0.77;;
11305;SDS011;5708;50.660;6.778;2023-05-10T12:15:30;2.50;;;0.65;;
11305;SDS011;5708;50.660;6.778;2023-05-10T12:17:55;1.85;;;0.50;;
11305;SDS011;5708;50.660;6.778;2023-05-10T12:20:22;3.10;;;0.57;;
11305;SDS011;5708;50.660;6.778;2023-05-10T12:22:49;0.60;;;0.45;;
11305;SDS011;5708;50.660;6.778;2023-05-10T12:25:19;1.13;;;0.60;;
11305;SDS011;5708;50.660;6.778;2023-05-10T12:27:49;1.13;;;0.47;;
11305;SDS011;5708;50.660;6.778;2023-05-10T12:30:20;2.05;;;0.50;;
11305;SDS011;5708;50.660;6.778;2023-05-10T12:32:49;1.45;;;0.60;;
11305;SDS011;5708;50.660;6.778;2023-05-10T12:35:14;1.02;;;0.60;;
11305;SDS011;5708;50.660;6.778;2023-05-10T12:37:41;1.48;;;0.65;;
11305;SDS011;5708;50.660;6.778;2023-05-10T12:40:10;0.85;;;0.50;;
11305;SDS011;5708;50.660;6.778;2023-05-10T12:42:36;1.83;;;0.50;;
11305;SDS011;5708;50.660;6.778;2023-05-10T12:45:03;1.45;;;0.60;;
11305;SDS011;5708;50.660;6.778;2023-05-10T12:47:29;1.88;;;0.50;;
11305;SDS011;5708;50.660;6.778;2023-05-10T12:49:55;1.15;;;0.50;;
11305;SDS011;5708;50.660;6.778;2023-05-10T12:52:20;1.75;;;0.40;;
11305;SDS011;5708;50.660;6.778;2023-05-10T12:54:45;0.73;;;0.50;;
11305;SDS011;5708;50.660;6.778;2023-05-10T12:57:12;1.65;;;0.50;;
11305;SDS011;5708;50.660;6.778;2023-05-10T12:59:38;1.83;;;0.60;;
11305;SDS011;5708;50.660;6.778;2023-05-10T13:02:03;0.90;;;0.50;;
11305;SDS011;5708;50.660;6.778;2023-05-10T13:04:28;1.02;;;0.70;;
11305;SDS011;5708;50.660;6.778;2023-05-10T13:06:54;1.58;;;0.70;;
11305;SDS011;5708;50.660;6.778;2023-05-10T13:09:23;1.45;;;0.50;;
11305;SDS011;5708;50.660;6.778;2023-05-10T13:11:48;4.65;;;0.70;;
11305;SDS011;5708;50.660;6.778;2023-05-10T13:14:14;3.10;;;0.70;;
11305;SDS011;5708;50.660;6.778;2023-05-10T13:16:39;3.08;;;0.63;;
11305;SDS011;5708;50.660;6.778;2023-05-10T13:19:04;3.08;;;0.93;;
11305;SDS011;5708;50.660;6.778;2023-05-10T13:21:30;2.53;;;0.75;;
11305;SDS011;5708;50.660;6.778;2023-05-10T13:23:55;1.23;;;0.68;;
11305;SDS011;5708;50.660;6.778;2023-05-10T13:26:20;2.08;;;0.80;;
11305;SDS011;5708;50.660;6.778;2023-05-10T13:28:46;3.03;;;0.65;;
11305;SDS011;5708;50.660;6.778;2023-05-10T13:31:11;2.47;;;0.50;;
11305;SDS011;5708;50.660;6.778;2023-05-10T13:33:36;1.00;;;0.30;;
11305;SDS011;5708;50.660;6.778;2023-05-10T13:36:02;3.00;;;0.80;;
11305;SDS011;5708;50.660;6.778;2023-05-10T13:38:27;0.68;;;0.60;;
11305;SDS011;5708;50.660;6.778;2023-05-10T13:40:52;2.95;;;0.75;;
11305;SDS011;5708;50.660;6.778;2023-05-10T13:43:18;1.95;;;0.70;;
11305;SDS011;5708;50.660;6.778;2023-05-10T13:45:44;1.73;;;0.75;;
11305;SDS011;5708;50.660;6.778;2023-05-10T13:48:09;0.82;;;0.50;;
11305;SDS011;5708;50.660;6.778;2023-05-10T13:50:34;0.90;;;0.55;;
11305;SDS011;5708;50.660;6.778;2023-05-10T13:53:00;2.10;;;0.60;;
11305;SDS011;5708;50.660;6.778;2023-05-10T13:55:25;3.33;;;0.60;;
11305;SDS011;5708;50.660;6.778;2023-05-10T13:57:50;1.17;;;0.68;;
11305;SDS011;5708;50.660;6.778;2023-05-10T14:00:16;1.75;;;0.57;;
11305;SDS011;5708;50.660;6.778;2023-05-10T14:02:41;1.88;;;0.70;;
11305;SDS011;5708;50.660;6.778;2023-05-10T14:05:07;2.65;;;0.60;;
11305;SDS011;5708;50.660;6.778;2023-05-10T14:07:32;1.02;;;0.68;;
11305;SDS011;5708;50.660;6.778;2023-05-10T14:09:58;2.40;;;0.55;;
11305;SDS011;5708;50.660;6.778;2023-05-10T14:12:23;1.85;;;0.50;;
11305;SDS011;5708;50.660;6.778;2023-05-10T14:14:48;0.82;;;0.60;;
11305;SDS011;5708;50.660;6.778;2023-05-10T14:17:14;2.53;;;0.77;;
11305;SDS011;5708;50.660;6.778;2023-05-10T14:19:39;1.08;;;0.77;;
11305;SDS011;5708;50.660;6.778;2023-05-10T14:22:04;2.80;;;0.70;;
11305;SDS011;5708;50.660;6.778;2023-05-10T14:24:30;2.80;;;0.80;;
11305;SDS011;5708;50.660;6.778;2023-05-10T14:26:55;0.70;;;0.68;;
11305;SDS011;5708;50.660;6.778;2023-05-10T14:29:21;1.40;;;0.80;;
11305;SDS011;5708;50.660;6.778;2023-05-10T14:31:47;3.05;;;1.00;;
11305;SDS011;5708;50.660;6.778;2023-05-10T14:34:12;1.55;;;0.90;;
11305;SDS011;5708;50.660;6.778;2023-05-10T14:36:37;1.75;;;0.90;;
11305;SDS011;5708;50.660;6.778;2023-05-10T14:39:03;1.75;;;0.93;;
11305;SDS011;5708;50.660;6.778;2023-05-10T14:41:28;2.92;;;1.05;;
11305;SDS011;5708;50.660;6.778;2023-05-10T14:43:55;1.88;;;1.40;;
11305;SDS011;5708;50.660;6.778;2023-05-10T14:46:20;3.85;;;1.10;;
11305;SDS011;5708;50.660;6.778;2023-05-10T14:48:45;3.60;;;1.20;;
11305;SDS011;5708;50.660;6.778;2023-05-10T14:51:11;3.33;;;1.20;;
11305;SDS011;5708;50.660;6.778;2023-05-10T14:53:36;4.25;;;1.45;;
11305;SDS011;5708;50.660;6.778;2023-05-10T14:56:01;4.60;;;1.40;;
11305;SDS011;5708;50.660;6.778;2023-05-10T14:58:27;2.70;;;1.23;;
11305;SDS011;5708;50.660;6.778;2023-05-10T15:00:53;2.45;;;1.00;;
11305;SDS011;5708;50.660;6.778;2023-05-10T15:03:18;2.03;;;1.20;;
11305;SDS011;5708;50.660;6.778;2023-05-10T15:05:43;3.42;;;1.50;;
11305;SDS011;5708;50.660;6.778;2023-05-10T15:08:09;2.20;;;1.20;;
11305;SDS011;5708;50.660;6.778;2023-05-10T15:10:34;4.18;;;1.60;;
11305;SDS011;5708;50.660;6.778;2023-05-10T15:13:00;3.00;;;1.60;;
11305;SDS011;5708;50.660;6.778;2023-05-10T15:15:26;3.42;;;1.77;;
11305;SDS011;5708;50.660;6.778;2023-05-10T15:17:51;3.17;;;1.77;;